Overton, Nevada Weather observations

Data are for observation ending at time listed.
 Day   Time    Ave.   Ave.  Ave.  Vector   Max.   Stn.    Total    Solar   Ave.  
  of    of     Air    Rel.  Wind   Wind    Wind   Baro.  Precip.   Rad.    Soil  
Year   Day     Temp.  Hum.  Speed  Dir.    Gust   Pres.                    Temp. 
2015   (PST)    F      %     mph   deg.    mph     mb.     in.     W/m2     F   
------------------------------------------------------------------------------
  25   16:30   72.4    23    4.1   341      6.1   973.4    0.00      36    61.8
  25   16:40   71.3    24    3.5   349      6.0   973.4    0.00      23    61.7
  25   16:50   70.4    24    3.0   308      5.4   973.4    0.00       7    61.4
  25   17:00   69.7    25    2.2   277      4.0   973.2    0.00       2    61.2
  25   17:10   68.9    26    2.4   288      4.2   972.9    0.00       0    60.9
  25   17:20   66.4    28    2.8   317      4.5   972.7    0.00       0    60.6
  25   17:30   64.5    30    3.7   314      5.8   972.6    0.00       0    60.4
  25   17:40   64.8    30    3.9   291      5.6   972.5    0.00       0    60.1
  25   17:50   64.1    30    3.9   298      5.3   972.5    0.00       0    59.8
  25   18:00   61.1    33    3.8   318      5.8   972.5    0.00       0    59.6
  25   18:10   59.2    35    4.0   319      5.9   972.5    0.00       0    59.4
  25   18:20   60.7    34    4.2   309      5.9   972.5    0.00       0    59.1
  25   18:30   61.4    34    4.1   296      5.8   972.5    0.00       0    58.9
  25   18:40   60.2    35    3.5   308      5.1   972.6    0.00       0    58.7
  25   18:50   60.1    35    4.5   308      8.0   972.5    0.00       0    58.5
  25   19:00   61.6    33    6.0   316      9.9   972.4    0.00       0    58.3
  25   19:10   60.3    35    4.8   306      6.8   972.5    0.00       0    58.2
  25   19:20   60.4    34    5.8   294      8.7   972.5    0.00       0    58.0
  25   19:30   62.3    32    7.4   301     10.2   972.5    0.00       0    57.9
  25   19:40   63.6    31    7.6   305     12.3   972.5    0.00       0    57.8
  25   19:50   66.6    28    9.0   309     14.3   972.5    0.00       0    57.8
  25   20:00   66.7    27    7.7   289     13.2   972.6    0.00       0    57.9
  25   20:10   65.8    28    6.9   305     13.2   972.8    0.00       0    58.0
  25   20:20   64.1    29    4.1   303      8.6   973.0    0.00       0    57.9
  25   20:30   65.6    28    5.5   309      9.0   973.0    0.00       0    57.8
  25   20:40   65.9    28    4.9   329      8.9   972.9    0.00       0    57.7
  25   20:50   64.8    29    6.8    10     11.4   973.1    0.00       0    57.8
  25   21:00   64.4    30    4.4    12      7.2   973.1    0.00       0    57.8
  25   21:10   61.5    33    3.8   343      7.7   973.0    0.00       0    57.7
  25   21:20   58.4    37    1.7   339      3.4   972.9    0.00       0    57.5
  25   21:30   58.1    38    0.6   294      3.9   972.8    0.00       0    57.3
  25   21:40   58.4    37    2.1   252      4.3   972.9    0.00       0    57.1
  25   21:50   58.8    37    2.2   220      4.7   972.9    0.00       0    56.9
  25   22:00   57.6    38    1.8   242      4.1   972.9    0.00       0    56.7
  25   22:10   55.7    41    1.3   223      2.8   972.9    0.00       0    56.5
  25   22:20   56.4    40    2.1   271      4.6   972.9    0.00       0    56.3
  25   22:30   57.5    38    4.2   317     12.7   972.9    0.00       0    56.1
  25   22:40   61.4    33    6.5   325     10.2   973.0    0.00       0    56.1
  25   22:50   56.8    40    6.8   336     10.4   973.2    0.00       0    56.1
  25   23:00   60.0    35    7.1   351      9.1   973.2    0.00       0    56.0
  25   23:10   61.3    34    6.1   345     15.3   973.3    0.00       0    56.0
  25   23:20   60.0    35    3.3   286      5.7   973.5    0.00       0    56.1
  25   23:30   59.7    35    1.9   306      4.1   973.5    0.00       0    56.0
  25   23:40   57.9    38    2.9   325      5.2   973.4    0.00       0    55.8
  25   23:50   55.0    43    3.5   326      5.7   973.3    0.00       0    55.6
  26    0:00   54.3    44    4.0   309      6.3   973.2    0.00       0    55.5
  26    0:10   55.0    43    2.5   253      5.1   973.2    0.00       0    55.3
  26    0:20   55.5    42    0.4   322      1.8   973.3    0.00       0    55.2
  26    0:30   53.3    46    3.9   351      6.9   973.3    0.00       0    55.0
  26    0:40   52.0    49    2.6   329      5.4   973.2    0.00       0    54.9
  26    0:50   52.8    47    4.2   238      6.4   973.2    0.00       0    54.7
  26    1:00   54.1    45    1.7   297      4.5   973.0    0.00       0    54.6
  26    1:10   52.0    48    2.0   332      4.0   972.9    0.00       0    54.4
  26    1:20   52.1    48    2.1   253      4.2   973.0    0.00       0    54.3
  26    1:30   52.7    47    1.1   269      3.6   973.2    0.00       0    54.1
  26    1:40   51.6    49    2.3   353      4.3   973.2    0.00       0    99999.0
  26    1:50   50.8    51    0.9   354      4.2   973.2    0.00       0    99999.0
  26    2:00   50.5    51    2.5   323      3.8   973.1    0.00       0    53.7
  26    2:10   50.5    51    1.4   273      3.7   973.0    0.00       0    53.5
  26    2:20   49.9    51    1.9   308      3.8   973.0    0.00       0    53.4
  26    2:30   49.7    52    1.8   301      3.4   973.0    0.00       0    53.3
  26    2:40   47.6    55    3.4   322      6.0   972.8    0.00       0    53.1
  26    2:50   49.2    54    3.0   297      5.0   972.8    0.00       0    53.0
  26    3:00   48.6    54    2.4   302      4.3   972.7    0.00       0    52.9
  26    3:10   48.4    56    2.5   322      4.6   972.6    0.00       0    52.8
  26    3:20   48.8    55    3.4   296      5.3   972.7    0.00       0    52.6
  26    3:30   49.2    53    5.0   297      8.6   972.7    0.00       0    52.5
  26    3:40   50.1    52    6.3   305      8.8   972.6    0.00       0    52.4
  26    3:50   50.3    52    5.4   308      7.0   972.6    0.00       0    52.3
  26    4:00   49.7    53    4.3   307      6.7   972.6    0.00       0    52.2
  26    4:10   49.4    54    2.9   281      5.9   972.6    0.00       0    52.1
  26    4:20   49.1    54    2.8   292      5.3   972.5    0.00       0    52.1
  26    4:30   49.5    53    3.1   289      4.8   972.6    0.00       0    52.0
  26    4:40   49.5    53    1.9   292      3.9   972.6    0.00       0    51.9
  26    4:50   47.6    57    2.7   320      5.0   972.5    0.00       0    51.8
  26    5:00   47.6    57    2.0   290      4.2   972.5    0.00       0    51.7
  26    5:10   46.8    58    3.2   316      5.4   972.4    0.00       0    51.5
  26    5:20   47.8    57    3.0   273      5.9   972.4    0.00       0    51.4
  26    5:30   48.4    56    4.6   282      7.3   972.4    0.00       0    51.3
  26    5:40   49.1    55    5.0   307     10.7   972.4    0.00       0    51.3
  26    5:50   49.0    55    4.1   286      7.5   972.4    0.00       0    51.2
  26    6:00   48.3    56    2.7   318      4.4   972.6    0.00       0    51.1
  26    6:10   48.0    56    2.5   261      5.0   972.8    0.00       0    51.1
  26    6:20   47.2    58    1.7   283      4.2   972.8    0.00       0    51.0
  26    6:30   45.6    60    2.6   315      4.1   972.9    0.00       0    50.9
  26    6:40   46.0    60    1.1   295      3.4   972.9    0.00       0    50.8
  26    6:50   45.5    61    1.3   316      3.7   972.9    0.00       2    50.7
  26    7:00   47.5    57    1.9   277      4.0   972.8    0.00      10    50.6
  26    7:10   45.9    60    1.9   323      5.9   972.8    0.00      22    50.5
  26    7:20   45.9    61    3.2   293      6.4   972.7    0.00      38    50.5
  26    7:30   47.2    59    2.8   286      6.0   972.6    0.00      53    50.5
  26    7:40   49.4    55    4.1   276      7.5   972.7    0.00      68    50.6
  26    7:50   52.1    50    4.5   271      7.2   972.8    0.00      52    50.7
  26    8:00   52.8    49    4.0   293      5.9   973.2    0.00      26    51.0
  26    8:10   53.0    49    4.4   304      7.3   973.3    0.00      20    51.3
  26    8:20   53.9    48    4.0   298      6.0   973.4    0.00       0    51.6
  26    8:30   54.7    47    2.5   309      4.7   973.4    0.00      50    51.9
  26    8:40   55.4    45    3.9   321      6.0   973.6    0.00      19    52.3
  26    8:50   55.9    45    3.6   305      6.2   973.7    0.00      12    52.6
  26    9:00   56.6    44    3.0   292      5.3   973.8    0.00      72    52.9
  26    9:10   57.7    42    3.3   298      4.9   973.9    0.00      38    53.2
  26    9:20   59.3    39    1.8   294      4.4   974.3    0.00     169    53.7
  26    9:30   60.5    36    4.8   350      8.3   974.5    0.00     323    54.2
  26    9:40   61.5    35    7.3   346     13.4   974.6    0.00     368    54.7
  26    9:50   61.4    34    8.1   336     13.2   974.7    0.00     330    55.1
  26   10:00   62.4    33    7.3   320     10.5   974.7    0.00     375    55.5
  26   10:10   62.7    33    7.5   322     11.3   974.7    0.00     198    55.9
  26   10:20   63.9    32    7.5   330     10.5   974.6    0.00     412    56.2
  26   10:30   64.9    31    7.0   321     10.2   974.6    0.00     421    56.7
  26   10:40   65.8    30    6.0   309     10.9   974.6    0.00     337    57.0
  26   10:50   66.0    29    5.5   318     11.0   974.5    0.00     306    57.2
  26   11:00   66.3    29    6.6   325      9.9   974.4    0.00     362    57.4
  26   11:10   67.2    29    7.0   327     10.9   974.2    0.00     305    57.7
  26   11:20   68.1    28    6.2   313      9.8   974.0    0.00     415    58.0
  26   11:30   68.5    28    7.6   322     11.8   973.9    0.00     500    58.3
  26   11:40   68.5    28    7.3   318     10.2   973.6    0.00     404    58.6
  26   11:50   68.7    27    7.7   318     11.6   973.3    0.00     449    58.9
  26   12:00   69.7    26    8.1   320     12.9   973.1    0.00     592    59.2
  26   12:10   70.3    26    7.0   305     10.1   973.0    0.00     278    59.6
  26   12:20   70.4    26    6.7   307     10.8   972.9    0.00     180    59.7
  26   12:30   70.2    26    5.2   300     10.0   972.9    0.00     299    59.8
  26   12:40   70.3    25    4.6   285      8.7   972.9    0.00     270    59.8
  26   12:50   70.8    25    3.8   293      7.2   972.6    0.00     347    60.0
  26   13:00   71.2    24    3.2   293      5.7   972.4    0.00     386    60.4
  26   13:10   72.1    24    2.5   291      5.5   972.3    0.00      40    60.7
  26   13:20   72.4    23    2.4   307      6.1   972.3    0.00       0    60.9
  26   13:30   72.2    24    2.6   313      6.1   972.2    0.00       0    61.0
  26   13:40   72.8    23    1.4   238      2.9   972.1    0.00       0    61.2
  26   13:50   73.0    23    1.3   227      4.5   972.1    0.00       0    61.4
  26   14:00   72.5    23    3.6   171      5.8   972.1    0.00       0    61.3
  26   14:10   72.2    23    3.1   177      5.9   972.1    0.00       0    61.3
  26   14:20   73.0    22    1.7   191      3.5   972.0    0.00     220    61.4
  26   14:30   73.9    22    2.0   209      4.4   972.0    0.00      33    61.6
  26   14:40   73.5    22    1.7   171      3.4   972.1    0.00       0    61.7
  26   14:50   74.4    21    1.3    81      2.9   972.3    0.00      45    61.7
  26   15:00   74.2    21    1.4   131      3.1   972.3    0.00     113    61.6
  26   15:10   73.7    22    1.3   208      2.9   972.2    0.00     150    61.6
  26   15:20   73.6    22    2.3   180      3.5   972.2    0.00     102    61.6
  26   15:30   73.8    22    2.4   151      6.0   972.0    0.00     119    61.7
  26   15:40   73.6    22    3.0   146      5.0   972.0    0.00     150    61.8
  26   15:50   73.3    22    3.6   148      8.4   972.1    0.00     135    61.8
  26   16:00   72.5    24    2.8   117      6.4   971.9    0.00      52    61.8
  26   16:10   71.4    26    3.2   128      6.6   971.7    0.00      45    61.8
  26   16:20   70.5    26    3.5   134      7.7   971.6    0.00      39    61.7

Return to Overton, Nevada graphs page.


Western Regional Climate Center,wrcc@dri.edu